Time;durP1;ratioP1;P1;durP2;ratioP2;P2;SDS_P1;SDS_P2;PMS_P1;PMS_P2;Temp;Humidity;BMP_temperature;BMP_pressure;BME280_temperature;BME280_humidity;BME280_pressure;Samples;Min_cycle;Max_cycle;Signal;HPM_P1;HPM_P2
2023/12/05 00:00:36;;;;;;;19.85;15.82;;;3.80;99.90;;;;;;5025511;28;20604;-74
2023/12/05 00:03:02;;;;;;;21.67;16.73;;;3.60;99.90;;;;;;5022566;28;20102;-75
2023/12/05 00:05:28;;;;;;;25.55;18.13;;;3.70;99.90;;;;;;5026964;28;20108;-75
2023/12/05 00:07:55;;;;;;;17.20;13.20;;;3.30;99.90;;;;;;5026924;28;20047;-74
2023/12/05 00:10:21;;;;;;;23.38;17.20;;;3.20;99.90;;;;;;4999458;28;20049;-75
2023/12/05 00:12:47;;;;;;;22.55;16.80;;;3.40;99.90;;;;;;5027793;28;20476;-77
2023/12/05 00:15:12;;;;;;;22.40;17.17;;;3.30;99.90;;;;;;4987759;28;20029;-76
2023/12/05 00:17:38;;;;;;;20.67;15.88;;;3.50;99.90;;;;;;5020490;28;20029;-74
2023/12/05 00:20:05;;;;;;;20.45;16.58;;;3.50;99.90;;;;;;5021136;28;20033;-74
2023/12/05 00:22:31;;;;;;;23.13;16.35;;;3.10;99.90;;;;;;4988155;28;20048;-76
2023/12/05 00:24:56;;;;;;;20.08;15.32;;;3.50;99.90;;;;;;4999571;28;20037;-74
2023/12/05 00:27:22;;;;;;;21.17;16.15;;;3.60;99.90;;;;;;5000369;28;20124;-74
2023/12/05 00:29:48;;;;;;;20.73;16.30;;;3.00;99.90;;;;;;5002699;28;20140;-73
2023/12/05 00:32:14;;;;;;;21.33;15.63;;;4.40;99.90;;;;;;4996334;28;20557;-74
2023/12/05 00:34:39;;;;;;;19.45;14.88;;;3.30;99.90;;;;;;4997884;28;20033;-73
2023/12/05 00:37:05;;;;;;;20.55;16.15;;;3.70;99.90;;;;;;5021963;28;20041;-72
2023/12/05 00:39:31;;;;;;;25.10;17.92;;;3.60;99.90;;;;;;5037006;28;20043;-71
2023/12/05 00:41:56;;;;;;;21.92;16.67;;;3.10;99.90;;;;;;5025251;28;20037;-73
2023/12/05 00:44:23;;;;;;;21.40;14.80;;;2.90;99.90;;;;;;4990523;28;20068;-75
2023/12/05 00:46:49;;;;;;;24.70;17.95;;;3.20;99.90;;;;;;5032100;28;20124;-77
2023/12/05 00:49:14;;;;;;;23.77;18.17;;;3.50;99.90;;;;;;5003510;28;20127;-76
2023/12/05 00:51:40;;;;;;;24.25;18.85;;;3.10;99.90;;;;;;5025725;28;20037;-73
2023/12/05 00:54:06;;;;;;;24.00;18.70;;;3.20;99.90;;;;;;5008520;28;20401;-73
2023/12/05 00:56:32;;;;;;;18.55;12.73;;;3.10;99.90;;;;;;4999320;28;20043;-75
2023/12/05 00:58:58;;;;;;;23.48;18.10;;;3.50;99.90;;;;;;4999611;28;20402;-75
2023/12/05 01:01:23;;;;;;;23.27;17.55;;;3.20;99.90;;;;;;5011274;28;20045;-74
2023/12/05 01:03:51;;;;;;;23.08;17.38;;;3.60;99.90;;;;;;4998882;28;20120;-74
2023/12/05 01:06:18;;;;;;;25.13;18.85;;;3.10;99.90;;;;;;5018602;28;20049;-74
2023/12/05 01:08:43;;;;;;;22.20;16.83;;;3.80;99.90;;;;;;5045166;28;20492;-73
2023/12/05 01:11:12;;;;;;;18.60;13.75;;;3.70;99.90;;;;;;5035773;28;20037;-76
2023/12/05 01:13:38;;;;;;;24.10;18.33;;;3.40;99.90;;;;;;4982754;28;20084;-77
2023/12/05 01:16:05;;;;;;;20.77;15.38;;;3.10;99.90;;;;;;4999089;28;20045;-75
2023/12/05 01:18:30;;;;;;;24.08;18.45;;;3.40;99.90;;;;;;5031744;28;20040;-73
2023/12/05 01:20:56;;;;;;;25.98;20.15;;;3.50;99.90;;;;;;5020381;28;20025;-74
2023/12/05 01:23:23;;;;;;;24.33;18.48;;;3.00;99.90;;;;;;5013488;28;20049;-74
2023/12/05 01:25:48;;;;;;;26.23;20.13;;;3.10;99.90;;;;;;5030832;28;20041;-77
2023/12/05 01:28:16;;;;;;;25.42;18.02;;;3.50;99.90;;;;;;5010635;28;20041;-74
2023/12/05 01:30:42;;;;;;;27.45;19.40;;;3.60;99.90;;;;;;4991636;28;20511;-75
2023/12/05 01:33:08;;;;;;;27.40;19.60;;;3.70;99.90;;;;;;4993522;28;20041;-75
2023/12/05 01:35:34;;;;;;;23.92;19.10;;;3.20;99.90;;;;;;4983997;28;20435;-78
2023/12/05 01:37:59;;;;;;;25.10;19.48;;;3.20;99.90;;;;;;5028647;28;20048;-74
2023/12/05 01:40:26;;;;;;;26.63;20.02;;;3.10;99.90;;;;;;5007261;28;20065;-72
2023/12/05 01:42:51;;;;;;;26.48;20.27;;;3.70;99.90;;;;;;5007398;28;20393;-72
2023/12/05 01:45:17;;;;;;;23.23;17.10;;;3.10;99.90;;;;;;5008786;28;20064;-75
2023/12/05 01:47:43;;;;;;;27.02;20.42;;;3.30;99.90;;;;;;5009106;28;20036;-74
2023/12/05 01:50:15;;;;;;;25.55;19.80;;;3.80;99.90;;;;;;4998758;28;20405;-76
2023/12/05 01:52:47;;;;;;;24.23;17.85;;;3.60;99.90;;;;;;5028125;28;20056;-76
2023/12/05 01:55:14;;;;;;;23.83;19.13;;;3.10;99.90;;;;;;5015358;28;20044;-76
2023/12/05 01:57:39;;;;;;;26.67;19.38;;;3.00;99.90;;;;;;5045322;28;20040;-76
2023/12/05 02:00:06;;;;;;;28.83;19.77;;;3.10;99.90;;;;;;5027010;28;20481;-73
2023/12/05 02:02:32;;;;;;;24.60;20.58;;;3.60;99.90;;;;;;4999948;28;20041;-76
2023/12/05 02:05:04;;;;;;;25.17;19.05;;;3.60;99.90;;;;;;5020780;28;20041;-74
2023/12/05 02:07:31;;;;;;;26.23;20.65;;;3.30;99.90;;;;;;4994266;28;20045;-74
2023/12/05 02:09:57;;;;;;;24.02;18.60;;;3.60;99.90;;;;;;5005428;28;20067;-76
2023/12/05 02:12:22;;;;;;;26.55;20.95;;;3.00;99.90;;;;;;5010066;28;20045;-75
2023/12/05 02:14:48;;;;;;;27.42;20.80;;;3.90;99.90;;;;;;4989446;28;20040;-76
2023/12/05 02:17:33;;;;;;;25.40;20.40;;;3.50;99.90;;;;;;5011316;28;20029;-75
2023/12/05 02:20:26;;;;;;;25.30;19.35;;;2.90;99.90;;;;;;5023065;28;20055;-76
2023/12/05 02:23:11;;;;;;;28.35;20.92;;;3.20;99.90;;;;;;5030458;28;20063;-77
2023/12/05 02:25:53;;;;;;;23.67;18.30;;;3.00;99.90;;;;;;5008067;28;20059;-74
2023/12/05 02:28:20;;;;;;;26.25;20.63;;;3.80;99.90;;;;;;5015401;28;20045;-75
2023/12/05 02:30:45;;;;;;;23.50;19.60;;;3.10;99.90;;;;;;5029096;28;20084;-75
2023/12/05 02:33:11;;;;;;;27.48;20.98;;;3.30;99.90;;;;;;5013406;28;20064;-77
2023/12/05 02:35:37;;;;;;;26.63;20.42;;;3.00;99.90;;;;;;5035999;28;20106;-73
2023/12/05 02:38:18;;;;;;;21.33;16.30;;;4.00;99.90;;;;;;5028579;28;20066;-72
2023/12/05 02:41:03;;;;;;;29.13;22.35;;;3.50;99.90;;;;;;5038272;28;20115;-74
2023/12/05 02:43:41;;;;;;;27.98;21.88;;;3.70;99.90;;;;;;5025557;28;20044;-75
2023/12/05 02:46:10;;;;;;;26.30;21.63;;;3.40;99.90;;;;;;5034843;28;20102;-73
2023/12/05 02:48:37;;;;;;;25.25;19.25;;;3.30;99.90;;;;;;5009236;28;20079;-76
2023/12/05 02:51:03;;;;;;;28.05;21.10;;;3.10;99.90;;;;;;5024854;28;20513;-75
2023/12/05 02:53:29;;;;;;;26.15;20.80;;;3.00;99.90;;;;;;5029100;28;20038;-74
2023/12/05 02:55:54;;;;;;;26.48;19.80;;;3.00;99.90;;;;;;5035980;28;20152;-74
2023/12/05 02:58:20;;;;;;;30.85;22.52;;;3.10;99.90;;;;;;5026089;28;20045;-76
2023/12/05 03:00:46;;;;;;;29.25;22.35;;;3.40;99.90;;;;;;5012613;28;20092;-74
2023/12/05 03:03:11;;;;;;;28.70;22.05;;;4.40;99.90;;;;;;5005788;28;20036;-74
2023/12/05 03:05:37;;;;;;;29.58;22.80;;;3.60;99.90;;;;;;5010052;28;20465;-76
2023/12/05 03:08:03;;;;;;;30.17;22.63;;;3.30;99.90;;;;;;5041888;28;20049;-72
2023/12/05 03:10:29;;;;;;;31.27;23.92;;;3.70;99.90;;;;;;5026335;28;20047;-73
2023/12/05 03:12:54;;;;;;;24.33;19.00;;;3.70;99.90;;;;;;4999598;28;20501;-74
2023/12/05 03:15:20;;;;;;;29.05;23.30;;;3.00;99.90;;;;;;5020774;28;20037;-75
2023/12/05 03:17:46;;;;;;;31.40;23.70;;;3.60;99.90;;;;;;5021437;28;20700;-74
2023/12/05 03:20:12;;;;;;;33.17;25.08;;;3.00;99.90;;;;;;5026419;28;20567;-74
2023/12/05 03:22:37;;;;;;;30.75;23.20;;;4.70;99.90;;;;;;5025630;28;20099;-74
2023/12/05 03:25:04;;;;;;;32.40;25.35;;;2.90;99.90;;;;;;5013411;28;20132;-76
2023/12/05 03:27:29;;;;;;;32.55;22.85;;;3.60;99.90;;;;;;5021800;28;20773;-73
2023/12/05 03:29:55;;;;;;;31.90;25.23;;;4.40;99.90;;;;;;5029625;28;20033;-73
2023/12/05 03:32:20;;;;;;;33.10;25.83;;;3.10;99.90;;;;;;5003259;28;20052;-77
2023/12/05 03:34:49;;;;;;;34.45;26.70;;;3.60;99.90;;;;;;5031767;28;20029;-76
2023/12/05 03:37:15;;;;;;;37.17;26.42;;;3.00;99.90;;;;;;5016746;28;20490;-75
2023/12/05 03:39:41;;;;;;;28.73;21.40;;;3.00;99.90;;;;;;5035273;28;20037;-74
2023/12/05 03:42:06;;;;;;;32.13;23.08;;;3.60;99.90;;;;;;4998045;28;20033;-76
2023/12/05 03:44:32;;;;;;;37.53;27.65;;;3.10;99.90;;;;;;4998727;28;20060;-74
2023/12/05 03:46:58;;;;;;;32.10;23.92;;;3.20;99.90;;;;;;5003742;28;20132;-75
2023/12/05 03:49:23;;;;;;;32.45;24.65;;;3.00;99.90;;;;;;5027952;28;20396;-74
2023/12/05 03:51:49;;;;;;;33.13;25.50;;;3.30;99.90;;;;;;5028498;28;20095;-73
2023/12/05 03:54:15;;;;;;;33.83;25.48;;;3.10;99.90;;;;;;5013901;28;20128;-73
2023/12/05 03:56:41;;;;;;;37.80;26.83;;;3.80;99.90;;;;;;5020291;28;20081;-74
2023/12/05 03:59:07;;;;;;;37.60;27.67;;;3.60;99.90;;;;;;5036167;28;20606;-75
2023/12/05 04:01:32;;;;;;;35.72;26.67;;;4.20;99.90;;;;;;5027777;28;20041;-74
2023/12/05 04:03:58;;;;;;;37.60;27.25;;;3.50;99.90;;;;;;5016534;28;20124;-73
2023/12/05 04:06:26;;;;;;;37.08;27.70;;;3.60;99.90;;;;;;5041465;28;20099;-76
2023/12/05 04:08:52;;;;;;;36.55;25.92;;;3.00;99.90;;;;;;5026132;28;20037;-75
2023/12/05 04:11:29;;;;;;;38.35;27.48;;;3.20;99.90;;;;;;5020474;28;20119;-76
2023/12/05 04:13:55;;;;;;;36.92;26.80;;;3.30;99.90;;;;;;4994839;28;20121;-75
2023/12/05 04:16:21;;;;;;;39.78;28.55;;;3.20;99.90;;;;;;5003723;28;20121;-75
2023/12/05 04:18:46;;;;;;;37.03;27.65;;;3.00;99.90;;;;;;5019225;28;20038;-74
2023/12/05 04:21:12;;;;;;;36.65;26.67;;;3.50;99.90;;;;;;5020242;28;20060;-73
2023/12/05 04:23:38;;;;;;;34.15;26.65;;;3.10;99.90;;;;;;5033382;28;20033;-76
2023/12/05 04:26:04;;;;;;;40.83;27.92;;;3.30;99.90;;;;;;5008717;28;20048;-74
2023/12/05 04:28:32;;;;;;;36.20;26.85;;;3.40;99.90;;;;;;5005615;28;20448;-73
2023/12/05 04:30:58;;;;;;;32.53;25.13;;;3.80;99.90;;;;;;5002407;28;20388;-75
2023/12/05 04:33:24;;;;;;;33.92;25.38;;;3.30;99.90;;;;;;4999098;28;20060;-73
2023/12/05 04:35:49;;;;;;;37.05;26.13;;;3.20;99.90;;;;;;5004396;28;20358;-75
2023/12/05 04:38:16;;;;;;;34.08;25.52;;;3.90;99.90;;;;;;4994660;28;20036;-75
2023/12/05 04:40:42;;;;;;;33.22;25.13;;;3.30;99.90;;;;;;5040629;28;20060;-75
2023/12/05 04:43:08;;;;;;;33.92;24.95;;;3.20;99.90;;;;;;5022251;28;20045;-74
2023/12/05 04:45:33;;;;;;;35.65;26.60;;;3.10;99.90;;;;;;5032560;28;20196;-74
2023/12/05 04:47:59;;;;;;;35.15;25.67;;;3.60;99.90;;;;;;4992223;28;20054;-76
2023/12/05 04:50:25;;;;;;;38.97;27.50;;;3.00;99.90;;;;;;5018174;28;20127;-74
2023/12/05 04:52:50;;;;;;;40.03;27.80;;;3.10;99.90;;;;;;5004853;28;20047;-77
2023/12/05 04:55:16;;;;;;;37.72;26.90;;;4.40;99.90;;;;;;4991523;28;20100;-75
2023/12/05 04:57:42;;;;;;;39.15;26.42;;;3.70;99.90;;;;;;5008996;28;20042;-75
2023/12/05 05:00:09;;;;;;;36.90;25.38;;;3.00;99.90;;;;;;5032509;28;20123;-75
2023/12/05 05:02:35;;;;;;;35.35;26.27;;;3.80;99.90;;;;;;5007096;28;20040;-76
2023/12/05 05:05:00;;;;;;;38.75;26.95;;;3.70;99.90;;;;;;4994699;28;20374;-75
2023/12/05 05:07:26;;;;;;;34.33;25.33;;;3.30;99.90;;;;;;5013171;28;20431;-75
2023/12/05 05:09:52;;;;;;;34.28;25.55;;;3.20;99.90;;;;;;5008351;28;20099;-76
2023/12/05 05:12:18;;;;;;;35.67;26.73;;;3.10;99.90;;;;;;5036549;28;20158;-75
2023/12/05 05:14:44;;;;;;;33.95;25.20;;;3.00;99.90;;;;;;5027560;28;20128;-75
2023/12/05 05:17:09;;;;;;;36.80;26.42;;;3.00;99.90;;;;;;5001054;28;20045;-75
2023/12/05 05:19:35;;;;;;;34.30;24.73;;;3.60;99.90;;;;;;5014479;28;20036;-75
2023/12/05 05:22:01;;;;;;;35.40;25.35;;;3.70;99.90;;;;;;5032651;28;20119;-74
2023/12/05 05:24:27;;;;;;;34.30;25.67;;;3.70;99.90;;;;;;5012315;28;20413;-75
2023/12/05 05:26:53;;;;;;;34.92;25.15;;;3.50;99.90;;;;;;5022403;28;20567;-75
2023/12/05 05:29:19;;;;;;;37.00;27.00;;;3.20;99.90;;;;;;5007038;28;20084;-75
2023/12/05 05:31:45;;;;;;;36.15;27.20;;;3.00;99.90;;;;;;5028085;28;20076;-76
2023/12/05 05:34:11;;;;;;;36.28;25.85;;;2.90;99.90;;;;;;5015478;28;20032;-75
2023/12/05 05:36:36;;;;;;;36.08;26.05;;;3.00;99.90;;;;;;5018917;28;20068;-75
2023/12/05 05:39:02;;;;;;;36.63;25.67;;;3.50;99.90;;;;;;5007252;28;20033;-75
2023/12/05 05:41:28;;;;;;;38.67;26.83;;;3.60;99.90;;;;;;5036513;28;20045;-75
2023/12/05 05:43:53;;;;;;;36.50;26.20;;;3.80;99.90;;;;;;4999257;28;20053;-75
2023/12/05 05:46:19;;;;;;;37.17;26.88;;;3.10;99.90;;;;;;5028233;28;20077;-75
2023/12/05 05:48:45;;;;;;;37.17;26.23;;;3.90;99.90;;;;;;4995402;28;20048;-76
2023/12/05 05:51:11;;;;;;;35.30;26.40;;;3.30;99.90;;;;;;5014918;28;20071;-75
2023/12/05 05:53:36;;;;;;;36.88;25.90;;;3.00;99.90;;;;;;4999174;28;20637;-75
2023/12/05 05:56:02;;;;;;;34.22;26.33;;;3.00;99.90;;;;;;5004977;28;20037;-77
2023/12/05 05:58:28;;;;;;;37.50;27.17;;;3.60;99.90;;;;;;4989337;28;20042;-77
2023/12/05 06:00:54;;;;;;;35.33;25.52;;;3.00;99.90;;;;;;5023827;28;20123;-75
2023/12/05 06:03:20;;;;;;;39.00;26.30;;;3.20;99.90;;;;;;5027184;28;20124;-76
2023/12/05 06:05:45;;;;;;;36.78;26.00;;;2.90;99.90;;;;;;5008952;28;20048;-75
2023/12/05 06:08:11;;;;;;;41.45;30.30;;;4.10;99.90;;;;;;5004374;28;20433;-75
2023/12/05 06:10:37;;;;;;;41.03;30.65;;;2.90;99.90;;;;;;4995188;28;20045;-75
2023/12/05 06:13:02;;;;;;;39.03;29.63;;;4.00;99.90;;;;;;5002398;28;20041;-75
2023/12/05 06:15:28;;;;;;;39.78;28.45;;;2.90;99.90;;;;;;5017594;28;20455;-75
2023/12/05 06:17:55;;;;;;;41.40;27.92;;;3.90;99.90;;;;;;4999654;28;20045;-75
2023/12/05 06:20:22;;;;;;;38.22;27.85;;;3.60;99.90;;;;;;5002861;28;20436;-74
2023/12/05 06:22:47;;;;;;;34.90;24.67;;;2.90;99.90;;;;;;4997125;28;20685;-74
2023/12/05 06:25:14;;;;;;;37.88;26.85;;;2.90;99.90;;;;;;4999019;28;20040;-74
2023/12/05 06:27:39;;;;;;;39.88;27.63;;;3.70;99.90;;;;;;5022548;28;20033;-74
2023/12/05 06:30:06;;;;;;;39.53;27.80;;;4.30;99.90;;;;;;5016628;28;20115;-73
2023/12/05 06:32:32;;;;;;;37.15;27.15;;;3.70;99.90;;;;;;5038708;28;20155;-75
2023/12/05 06:34:57;;;;;;;38.38;26.95;;;3.20;99.90;;;;;;5005108;28;20361;-75
2023/12/05 06:37:23;;;;;;;41.97;28.23;;;3.70;99.90;;;;;;5012200;28;20044;-75
2023/12/05 06:39:49;;;;;;;36.05;26.83;;;3.10;99.90;;;;;;5026670;28;20624;-75
2023/12/05 06:42:15;;;;;;;37.33;26.95;;;3.50;99.90;;;;;;4986600;28;20493;-74
2023/12/05 06:44:41;;;;;;;36.10;26.40;;;3.80;99.90;;;;;;5015111;28;20488;-75
2023/12/05 06:47:08;;;;;;;37.13;26.35;;;3.40;99.90;;;;;;5008569;28;20130;-75
2023/12/05 06:49:34;;;;;;;41.28;27.90;;;3.50;99.90;;;;;;5009921;28;20043;-75
2023/12/05 06:52:00;;;;;;;36.22;25.55;;;3.40;99.90;;;;;;4988278;28;20055;-74
2023/12/05 06:54:26;;;;;;;43.13;27.88;;;2.90;99.90;;;;;;5003663;28;20096;-75
2023/12/05 06:56:52;;;;;;;41.65;27.75;;;3.20;99.90;;;;;;4998773;28;20413;-73
2023/12/05 06:59:17;;;;;;;39.45;27.38;;;3.70;99.90;;;;;;5004620;28;20069;-75
2023/12/05 07:01:43;;;;;;;39.60;26.58;;;3.10;99.90;;;;;;5032114;28;20041;-75
2023/12/05 07:04:09;;;;;;;37.47;26.65;;;3.70;99.90;;;;;;5013352;28;20052;-76
2023/12/05 07:06:34;;;;;;;37.10;26.45;;;3.70;99.90;;;;;;4998937;28;20449;-75
2023/12/05 07:09:00;;;;;;;43.15;30.55;;;3.60;99.90;;;;;;5039125;28;20056;-74
2023/12/05 07:11:26;;;;;;;49.13;34.40;;;4.30;99.90;;;;;;5035362;28;20044;-75
2023/12/05 07:13:53;;;;;;;52.90;37.15;;;2.90;99.90;;;;;;5031570;28;20051;-75
2023/12/05 07:16:19;;;;;;;53.90;38.08;;;3.30;99.90;;;;;;5043460;28;20037;-75
2023/12/05 07:18:45;;;;;;;62.00;44.10;;;3.70;99.90;;;;;;5016044;28;20041;-69
2023/12/05 07:21:11;;;;;;;49.95;36.80;;;3.00;99.90;;;;;;5032691;28;20400;-75
2023/12/05 07:23:37;;;;;;;42.92;30.20;;;3.00;99.90;;;;;;5029758;28;20052;-76
2023/12/05 07:26:03;;;;;;;52.25;37.17;;;2.90;99.90;;;;;;5022608;28;20040;-75
2023/12/05 07:28:29;;;;;;;37.92;28.20;;;3.40;99.90;;;;;;5014253;28;20045;-76
2023/12/05 07:30:55;;;;;;;39.50;27.63;;;3.60;99.90;;;;;;5004715;28;20045;-74
2023/12/05 07:33:21;;;;;;;36.33;26.15;;;3.60;99.90;;;;;;5008300;28;20043;-75
2023/12/05 07:35:47;;;;;;;36.88;26.50;;;3.70;99.90;;;;;;5006182;28;20033;-75
2023/12/05 07:38:12;;;;;;;34.22;24.98;;;3.10;99.90;;;;;;5028888;28;20033;-75
2023/12/05 07:40:38;;;;;;;36.58;26.27;;;3.80;99.90;;;;;;5001909;28;20041;-74
2023/12/05 07:43:04;;;;;;;39.33;27.48;;;3.60;99.90;;;;;;5001806;28;20037;-74
2023/12/05 07:45:30;;;;;;;34.97;27.40;;;2.90;99.90;;;;;;5004397;28;20057;-76
2023/12/05 07:47:56;;;;;;;39.40;27.67;;;4.50;99.90;;;;;;5005248;28;20052;-75
2023/12/05 07:50:22;;;;;;;35.65;27.42;;;4.10;99.90;;;;;;5008914;28;20036;-74
2023/12/05 07:52:49;;;;;;;36.45;26.63;;;2.90;99.90;;;;;;5027628;28;20033;-75
2023/12/05 07:55:16;;;;;;;34.42;26.52;;;3.10;99.90;;;;;;5016058;28;20087;-75
2023/12/05 07:57:41;;;;;;;35.00;26.05;;;3.00;99.90;;;;;;5020542;28;20068;-76
2023/12/05 08:00:14;;;;;;;32.75;24.45;;;3.00;99.90;;;;;;5017263;28;20122;-76
2023/12/05 08:02:40;;;;;;;32.80;24.73;;;3.50;99.90;;;;;;5007659;28;20041;-74
2023/12/05 08:05:06;;;;;;;35.15;26.17;;;3.80;99.90;;;;;;5030194;28;20477;-74
2023/12/05 08:07:31;;;;;;;34.45;25.98;;;3.00;99.90;;;;;;5014267;28;20041;-77
2023/12/05 08:09:57;;;;;;;36.80;26.33;;;3.40;99.90;;;;;;5032902;28;20052;-74
2023/12/05 08:12:23;;;;;;;35.25;25.17;;;3.20;99.90;;;;;;4986540;28;20087;-75
2023/12/05 08:14:48;;;;;;;33.40;25.42;;;3.90;99.90;;;;;;5012842;28;20029;-74
2023/12/05 08:17:14;;;;;;;36.00;25.45;;;3.30;99.90;;;;;;5029764;28;20057;-76
2023/12/05 08:19:40;;;;;;;35.20;25.88;;;3.10;99.90;;;;;;5017475;28;20048;-76
2023/12/05 08:22:05;;;;;;;35.10;26.40;;;4.20;99.90;;;;;;5010273;28;20495;-77
2023/12/05 08:24:31;;;;;;;33.95;24.67;;;3.00;99.90;;;;;;5012123;28;20123;-74
2023/12/05 08:26:58;;;;;;;32.42;25.35;;;4.20;99.90;;;;;;5010338;28;20067;-74
2023/12/05 08:29:24;;;;;;;34.22;24.35;;;3.00;99.90;;;;;;5010232;28;20071;-75
2023/12/05 08:31:50;;;;;;;34.33;24.27;;;3.80;99.90;;;;;;5036630;28;20069;-74
2023/12/05 08:34:16;;;;;;;37.55;26.38;;;3.10;99.90;;;;;;5042136;28;20087;-74
2023/12/05 08:36:44;;;;;;;32.25;24.33;;;3.90;99.90;;;;;;4999695;28;20048;-77
2023/12/05 08:39:11;;;;;;;32.88;24.98;;;3.70;99.90;;;;;;5019284;28;20079;-74
2023/12/05 08:41:37;;;;;;;35.78;26.05;;;3.40;99.90;;;;;;4999448;28;20040;-74
2023/12/05 08:44:03;;;;;;;34.28;24.73;;;3.70;99.90;;;;;;5013844;28;20044;-75
2023/12/05 08:46:28;;;;;;;32.42;25.30;;;4.30;99.90;;;;;;4996863;28;20081;-75
2023/12/05 08:48:54;;;;;;;31.52;24.75;;;3.60;99.90;;;;;;5026951;28;20045;-75
2023/12/05 08:51:20;;;;;;;29.92;23.65;;;3.20;99.90;;;;;;5022632;28;20420;-75
2023/12/05 08:53:46;;;;;;;30.80;23.50;;;3.20;99.90;;;;;;5014842;28;20033;-74
2023/12/05 08:56:12;;;;;;;31.55;24.38;;;4.00;99.90;;;;;;5033827;28;20065;-77
2023/12/05 08:58:39;;;;;;;31.77;23.92;;;3.10;99.90;;;;;;5036206;28;20037;-75
2023/12/05 09:01:05;;;;;;;31.58;24.30;;;3.30;99.90;;;;;;5032667;28;20064;-75
2023/12/05 09:03:31;;;;;;;32.08;24.95;;;3.20;99.90;;;;;;5010543;28;20659;-77
2023/12/05 09:05:56;;;;;;;32.85;24.50;;;3.60;99.90;;;;;;5052455;28;20040;-74
2023/12/05 09:08:22;;;;;;;30.52;23.83;;;3.70;99.90;;;;;;5052822;28;20583;-77
2023/12/05 09:10:48;;;;;;;30.23;23.73;;;3.40;99.90;;;;;;5035966;28;20040;-74
2023/12/05 09:13:17;;;;;;;32.72;24.45;;;3.40;99.90;;;;;;5047790;28;20396;-75
2023/12/05 09:15:43;;;;;;;31.70;24.63;;;3.40;99.90;;;;;;5043308;28;20036;-75
2023/12/05 09:18:10;;;;;;;32.75;24.80;;;3.20;99.90;;;;;;5036298;28;20123;-75
2023/12/05 09:20:37;;;;;;;29.77;24.08;;;3.70;99.90;;;;;;5052151;28;20040;-75
2023/12/05 09:23:03;;;;;;;33.13;24.27;;;3.40;99.90;;;;;;5035375;28;20357;-75
2023/12/05 09:25:28;;;;;;;29.58;22.98;;;3.20;99.90;;;;;;5020530;28;20050;-74
2023/12/05 09:27:54;;;;;;;32.53;24.55;;;3.30;99.90;;;;;;5052694;28;20041;-75
2023/12/05 09:30:20;;;;;;;32.15;24.70;;;3.70;99.90;;;;;;5019165;28;20127;-75
2023/12/05 09:32:45;;;;;;;29.83;23.33;;;3.30;99.90;;;;;;5035968;28;20114;-74
2023/12/05 09:35:11;;;;;;;29.50;23.75;;;3.20;99.90;;;;;;5018392;28;20621;-75
2023/12/05 09:37:37;;;;;;;33.72;24.98;;;4.30;99.90;;;;;;5024963;28;20589;-74
2023/12/05 09:40:03;;;;;;;35.70;26.75;;;3.30;99.90;;;;;;5024877;28;20050;-73
2023/12/05 09:42:29;;;;;;;39.05;28.05;;;3.30;99.90;;;;;;5011426;28;20065;-75
2023/12/05 09:44:57;;;;;;;54.70;38.70;;;3.80;99.90;;;;;;5028056;28;20404;-74
2023/12/05 09:47:25;;;;;;;36.72;28.45;;;3.90;99.90;;;;;;5023885;28;20124;-75
2023/12/05 09:49:51;;;;;;;33.33;25.83;;;3.80;99.90;;;;;;5017903;28;20044;-74
2023/12/05 09:52:17;;;;;;;34.03;25.10;;;4.10;99.90;;;;;;5019550;28;20038;-75
2023/12/05 09:54:43;;;;;;;30.42;24.38;;;4.20;99.90;;;;;;5008626;28;20040;-74
2023/12/05 09:57:12;;;;;;;34.17;25.40;;;4.60;99.90;;;;;;5006527;28;20041;-74
2023/12/05 09:59:38;;;;;;;31.13;24.17;;;3.80;99.90;;;;;;5027876;28;20114;-74
2023/12/05 10:02:05;;;;;;;30.83;24.10;;;4.60;99.90;;;;;;5003163;28;20041;-73
2023/12/05 10:04:37;;;;;;;33.00;25.17;;;4.20;99.90;;;;;;5011067;28;20047;-75
2023/12/05 10:07:04;;;;;;;32.58;23.52;;;4.00;99.90;;;;;;5018150;28;20052;-74
2023/12/05 10:09:31;;;;;;;30.73;23.73;;;3.50;99.90;;;;;;5022184;28;20067;-73
2023/12/05 10:11:58;;;;;;;31.40;24.35;;;3.50;99.90;;;;;;5013595;28;20037;-74
2023/12/05 10:14:24;;;;;;;30.55;23.48;;;3.40;99.90;;;;;;5028396;28;20037;-72
2023/12/05 10:16:51;;;;;;;32.33;24.77;;;4.40;99.90;;;;;;5036008;28;20477;-73
2023/12/05 10:19:18;;;;;;;32.50;25.20;;;4.10;99.90;;;;;;5022054;28;20045;-75
2023/12/05 10:21:44;;;;;;;30.92;24.27;;;3.80;99.90;;;;;;5005645;28;20492;-73
2023/12/05 10:24:10;;;;;;;31.58;24.42;;;4.60;99.90;;;;;;5014525;28;20045;-73
2023/12/05 10:26:57;;;;;;;32.70;25.02;;;4.10;99.90;;;;;;5020287;28;20091;-73
2023/12/05 10:29:40;;;;;;;31.45;24.17;;;4.40;99.90;;;;;;4995521;28;20087;-72
2023/12/05 10:32:07;;;;;;;33.80;25.40;;;3.80;99.90;;;;;;5018139;28;20056;-73
2023/12/05 10:34:48;;;;;;;34.40;25.85;;;3.70;99.90;;;;;;4995411;28;20489;-76
2023/12/05 10:37:14;;;;;;;31.33;24.25;;;3.50;99.90;;;;;;5028198;28;20071;-73
2023/12/05 10:39:39;;;;;;;31.65;23.90;;;3.90;99.90;;;;;;4998525;28;20036;-74
2023/12/05 10:42:08;;;;;;;32.72;24.27;;;3.90;99.90;;;;;;5025564;28;20517;-72
2023/12/05 10:44:38;;;;;;;33.55;25.10;;;3.80;99.90;;;;;;5036245;28;20061;-73
2023/12/05 10:47:05;;;;;;;31.42;23.88;;;3.50;99.90;;;;;;5019562;28;20144;-74
2023/12/05 10:49:31;;;;;;;29.52;23.30;;;3.50;99.90;;;;;;4992809;28;20453;-72
2023/12/05 10:51:58;;;;;;;32.83;25.65;;;3.80;99.90;;;;;;5002624;28;20087;-74
2023/12/05 10:54:25;;;;;;;33.38;25.48;;;4.00;99.90;;;;;;5014231;28;20100;-72
2023/12/05 10:56:58;;;;;;;35.05;26.15;;;3.70;99.90;;;;;;5013165;28;20049;-74
2023/12/05 10:59:28;;;;;;;37.92;26.65;;;3.60;99.90;;;;;;5003371;28;20091;-73
2023/12/05 11:01:58;;;;;;;33.85;24.55;;;4.00;99.90;;;;;;5004468;28;20051;-71
2023/12/05 11:04:27;;;;;;;35.35;25.55;;;3.60;99.90;;;;;;5008008;28;20398;-72
2023/12/05 11:06:53;;;;;;;34.15;26.45;;;3.90;99.90;;;;;;5025993;28;20048;-73
2023/12/05 11:09:19;;;;;;;33.55;25.38;;;4.20;99.90;;;;;;4995291;28;20060;-73
2023/12/05 11:11:48;;;;;;;35.45;26.75;;;3.50;99.90;;;;;;5011963;28;20400;-75
2023/12/05 11:14:16;;;;;;;34.38;26.23;;;3.80;99.90;;;;;;5018922;28;20406;-73
2023/12/05 11:16:53;;;;;;;34.13;25.40;;;4.40;99.90;;;;;;5007397;28;20123;-75
2023/12/05 11:19:28;;;;;;;34.25;25.55;;;3.70;99.90;;;;;;5010896;28;20041;-76
2023/12/05 11:22:27;;;;;;;34.95;25.70;;;3.90;99.90;;;;;;5011704;28;20393;-75
2023/12/05 11:25:20;;;;;;;34.35;25.20;;;4.00;99.90;;;;;;5034715;28;20053;-74
2023/12/05 11:28:19;;;;;;;39.17;29.23;;;3.50;99.90;;;;;;5000909;28;20033;-75
2023/12/05 11:31:07;;;;;;;37.33;27.60;;;3.90;99.90;;;;;;5005988;28;20612;-75
2023/12/05 11:34:14;;;;;;;40.25;27.90;;;3.60;99.90;;;;;;5026823;28;20077;-75
2023/12/05 11:36:51;;;;;;;44.30;30.13;;;3.40;99.90;;;;;;5000223;28;20037;-75
2023/12/05 11:39:18;;;;;;;43.15;30.50;;;3.40;99.90;;;;;;5007736;28;20037;-77
2023/12/05 11:42:08;;;;;;;49.95;36.72;;;3.50;99.90;;;;;;5019523;28;20105;-76
2023/12/05 11:44:38;;;;;;;39.90;28.73;;;3.50;99.90;;;;;;5004696;28;20056;-76
2023/12/05 11:47:14;;;;;;;39.05;28.13;;;3.50;99.90;;;;;;5015077;28;20033;-77
2023/12/05 11:49:50;;;;;;;38.28;28.05;;;3.60;99.90;;;;;;5006073;28;20457;-77
2023/12/05 11:52:18;;;;;;;39.17;28.40;;;3.80;99.90;;;;;;5010890;28;20124;-77
2023/12/05 11:54:50;;;;;;;40.25;28.38;;;3.90;99.90;;;;;;5006501;28;20037;-77
2023/12/05 11:57:17;;;;;;;41.53;29.40;;;3.50;99.90;;;;;;5028432;28;20163;-76
2023/12/05 11:59:48;;;;;;;40.63;28.70;;;3.90;99.90;;;;;;5018854;28;20701;-76
2023/12/05 12:02:18;;;;;;;38.47;28.70;;;3.50;99.90;;;;;;5029361;28;20124;-77
2023/12/05 12:04:47;;;;;;;40.50;30.10;;;3.40;99.90;;;;;;5017217;28;20508;-78
2023/12/05 12:07:13;;;;;;;38.78;28.00;;;3.50;99.90;;;;;;5008988;28;20128;-78
2023/12/05 12:09:40;;;;;;;42.67;30.50;;;3.30;99.90;;;;;;4990564;28;20469;-78
2023/12/05 12:12:07;;;;;;;40.88;29.85;;;4.00;99.90;;;;;;5005821;28;20706;-76
2023/12/05 12:14:35;;;;;;;40.90;30.23;;;3.70;99.90;;;;;;5013393;28;20216;-79
2023/12/05 12:17:04;;;;;;;42.22;30.02;;;3.70;99.90;;;;;;5015469;28;20033;-79
2023/12/05 12:19:37;;;;;;;41.83;30.02;;;3.30;99.90;;;;;;5034072;28;20037;-75
2023/12/05 12:22:12;;;;;;;41.72;28.88;;;3.30;99.90;;;;;;5014987;28;20719;-78
2023/12/05 12:24:39;;;;;;;39.78;29.33;;;3.30;99.90;;;;;;5012321;28;20045;-79
2023/12/05 12:27:07;;;;;;;42.67;30.80;;;3.30;99.90;;;;;;5006628;28;20055;-77
2023/12/05 12:29:33;;;;;;;43.80;30.77;;;3.80;99.90;;;;;;5022809;28;20505;-77
2023/12/05 12:32:10;;;;;;;44.20;30.13;;;3.70;99.90;;;;;;5021401;28;20489;-76
2023/12/05 12:34:37;;;;;;;41.38;30.73;;;3.60;99.90;;;;;;5013382;28;20489;-77
2023/12/05 12:37:10;;;;;;;42.50;29.70;;;3.80;99.90;;;;;;5023088;28;20072;-76